Time;durP1;ratioP1;P1;durP2;ratioP2;P2;SDS_P1;SDS_P2;PMS_P1;PMS_P2;Temp;Humidity;BMP_temperature;BMP_pressure;BME280_temperature;BME280_humidity;BME280_pressure;Samples;Min_cycle;Max_cycle;Signal;HPM_P1;HPM_P2
2022/01/20 00:01:13;;;;;;;29.40;5.13;;;5.40;99.90;;;;;;5094565;28;20031;-74
2022/01/20 00:03:41;;;;;;;32.72;4.45;;;5.30;99.90;;;;;;5093135;28;20646;-73
2022/01/20 00:06:58;;;;;;;26.30;4.18;;;5.20;99.90;;;;;;5094237;28;20023;-73
2022/01/20 00:09:34;;;;;;;19.98;4.30;;;5.20;99.90;;;;;;5093136;28;20393;-74
2022/01/20 00:28:28;;;;;;;22.85;3.40;;;5.30;99.90;;;;;;5093362;28;20027;-74
2022/01/20 00:31:09;;;;;;;28.00;3.40;;;5.40;99.90;;;;;;5092316;28;20480;-73
2022/01/20 00:33:44;;;;;;;19.52;2.58;;;5.40;99.90;;;;;;5093674;28;20028;-74
2022/01/20 00:38:40;;;;;;;27.55;3.58;;;5.40;99.90;;;;;;5093622;28;20553;-74
2022/01/20 00:41:08;;;;;;;25.35;3.70;;;5.30;99.90;;;;;;5092308;28;20027;-74
2022/01/20 00:43:35;;;;;;;30.02;4.13;;;5.30;99.90;;;;;;5092121;28;20468;-73
2022/01/20 00:46:00;;;;;;;32.15;3.80;;;5.20;99.90;;;;;;5092425;28;20034;-74
2022/01/20 00:48:26;;;;;;;20.08;2.90;;;5.20;99.90;;;;;;5091447;28;20450;-74
2022/01/20 00:50:52;;;;;;;33.70;3.38;;;5.20;99.90;;;;;;5093417;28;20028;-74
2022/01/20 00:53:18;;;;;;;16.70;2.83;;;5.10;99.90;;;;;;5075114;28;20101;-74
2022/01/20 00:55:44;;;;;;;18.85;3.33;;;5.10;99.90;;;;;;5093051;28;20476;-74
2022/01/20 00:58:09;;;;;;;13.57;2.60;;;5.20;99.90;;;;;;5091989;28;20028;-74
2022/01/20 01:00:36;;;;;;;18.48;1.98;;;5.20;99.90;;;;;;5093385;28;20031;-74
2022/01/20 01:03:02;;;;;;;17.42;2.97;;;5.40;99.90;;;;;;5091725;28;20020;-74
2022/01/20 01:05:28;;;;;;;24.95;2.30;;;5.40;99.90;;;;;;5093229;28;20031;-74
2022/01/20 01:07:56;;;;;;;13.85;1.92;;;5.40;99.90;;;;;;5093170;28;20024;-74
2022/01/20 01:10:27;;;;;;;11.38;1.83;;;5.40;99.90;;;;;;5078316;28;20032;-73
2022/01/20 01:15:33;;;;;;;17.30;2.85;;;5.60;99.90;;;;;;5071490;28;20351;-74
2022/01/20 01:23:27;;;;;;;10.98;1.83;;;5.60;99.90;;;;;;5072645;28;20033;-73
2022/01/20 01:25:56;;;;;;;10.98;1.70;;;5.50;99.90;;;;;;5075476;28;20114;-74
2022/01/20 01:28:25;;;;;;;10.85;1.65;;;5.50;99.90;;;;;;5093001;28;20024;-74
2022/01/20 01:33:38;;;;;;;17.80;2.22;;;5.50;99.90;;;;;;5091366;28;20035;-74
2022/01/20 01:36:06;;;;;;;13.85;1.80;;;5.50;99.90;;;;;;5093037;28;20043;-73
2022/01/20 01:38:36;;;;;;;14.98;1.65;;;5.50;99.90;;;;;;5091259;28;20052;-73
2022/01/20 01:41:13;;;;;;;14.55;2.30;;;5.50;99.90;;;;;;5074770;28;20028;-73
2022/01/20 01:43:45;;;;;;;19.35;2.55;;;5.50;99.90;;;;;;5093077;28;20028;-73
2022/01/20 01:46:14;;;;;;;10.25;2.03;;;5.60;99.90;;;;;;5091485;28;20035;-73
2022/01/20 01:48:42;;;;;;;12.40;1.73;;;5.60;99.90;;;;;;5091446;28;20035;-73
2022/01/20 01:51:11;;;;;;;14.68;2.13;;;5.60;99.90;;;;;;5091433;28;20035;-73
2022/01/20 01:53:41;;;;;;;12.23;2.03;;;5.60;99.90;;;;;;5090946;28;20028;-73
2022/01/20 01:56:07;;;;;;;28.45;3.55;;;5.60;99.90;;;;;;5091324;28;20020;-73
2022/01/20 01:58:36;;;;;;;10.43;1.75;;;5.60;99.90;;;;;;5091512;28;20052;-73
2022/01/20 02:01:13;;;;;;;25.35;2.67;;;5.60;99.90;;;;;;5073837;28;20032;-73
2022/01/20 02:03:57;;;;;;;14.73;2.83;;;5.60;99.90;;;;;;5075154;28;20043;-73
2022/01/20 02:19:35;;;;;;;12.23;2.10;;;5.30;99.90;;;;;;5095910;28;20028;-73
2022/01/20 02:22:20;;;;;;;17.40;2.40;;;5.30;99.90;;;;;;5096419;28;20074;-73
2022/01/20 02:25:23;;;;;;;12.35;2.00;;;5.20;99.90;;;;;;5081209;28;20035;-74
2022/01/20 02:27:50;;;;;;;8.88;2.50;;;5.30;99.90;;;;;;5094804;28;20088;-73
2022/01/20 02:30:18;;;;;;;17.77;2.38;;;5.30;99.90;;;;;;5077831;28;20043;-73
2022/01/20 02:32:54;;;;;;;15.07;2.83;;;5.40;99.90;;;;;;5094871;28;20392;-73
2022/01/20 02:35:21;;;;;;;9.73;2.38;;;5.30;99.90;;;;;;5095948;28;20059;-73
2022/01/20 02:37:52;;;;;;;14.95;1.73;;;5.40;99.90;;;;;;5094576;28;20147;-72
2022/01/20 02:45:43;;;;;;;12.85;1.75;;;5.10;99.90;;;;;;5094453;28;20032;-73
2022/01/20 02:48:09;;;;;;;10.98;1.88;;;5.10;99.90;;;;;;5094889;28;20119;-73
2022/01/20 02:50:35;;;;;;;13.85;1.90;;;5.20;99.90;;;;;;5095856;28;20079;-73
2022/01/20 02:53:01;;;;;;;12.18;2.25;;;5.20;99.90;;;;;;5095523;28;20473;-73
2022/01/20 02:55:27;;;;;;;8.35;1.67;;;5.10;99.90;;;;;;5094733;28;20078;-73
2022/01/20 02:57:53;;;;;;;10.60;1.52;;;5.10;99.90;;;;;;5077607;28;20388;-73
2022/01/20 03:00:19;;;;;;;13.40;1.13;;;5.10;99.90;;;;;;5095516;28;20024;-73
2022/01/20 03:02:46;;;;;;;12.20;1.90;;;5.00;99.90;;;;;;5094247;28;20463;-73
2022/01/20 03:05:12;;;;;;;8.95;2.17;;;5.10;99.90;;;;;;5095476;28;20112;-73
2022/01/20 03:07:40;;;;;;;8.98;1.00;;;5.00;99.90;;;;;;5093788;28;20032;-72
2022/01/20 03:10:07;;;;;;;7.75;1.48;;;5.00;99.90;;;;;;5083414;28;20081;-73
2022/01/20 03:12:33;;;;;;;9.45;1.92;;;4.90;99.90;;;;;;5074428;28;20077;-73
2022/01/20 03:14:59;;;;;;;9.77;1.10;;;4.80;99.90;;;;;;5090650;28;20400;-73
2022/01/20 03:17:25;;;;;;;9.30;1.88;;;4.80;99.90;;;;;;5073584;28;20036;-73
2022/01/20 03:19:51;;;;;;;4.30;1.02;;;4.80;99.90;;;;;;5073589;28;20028;-73
2022/01/20 03:22:17;;;;;;;8.20;1.17;;;4.80;99.90;;;;;;5073282;28;20139;-73
2022/01/20 03:24:43;;;;;;;10.43;1.30;;;4.80;99.90;;;;;;5073792;28;20055;-73
2022/01/20 03:27:09;;;;;;;15.07;1.42;;;4.80;99.90;;;;;;5086879;28;20499;-73
2022/01/20 03:29:35;;;;;;;9.18;1.70;;;4.80;99.90;;;;;;5093700;28;20028;-73
2022/01/20 03:32:01;;;;;;;11.57;1.70;;;4.70;99.90;;;;;;5093448;28;20039;-73
2022/01/20 03:34:27;;;;;;;20.85;2.03;;;4.70;99.90;;;;;;5093698;28;20039;-72
2022/01/20 03:37:00;;;;;;;12.13;1.77;;;4.70;99.90;;;;;;5093678;28;20036;-73
2022/01/20 03:39:35;;;;;;;14.73;2.20;;;4.70;99.90;;;;;;5079936;28;20016;-73
2022/01/20 03:42:00;;;;;;;12.70;2.53;;;4.80;99.90;;;;;;5073146;28;20034;-73
2022/01/20 03:44:29;;;;;;;16.50;2.45;;;4.80;99.90;;;;;;5073202;28;20039;-73
2022/01/20 03:46:57;;;;;;;11.43;2.15;;;4.90;99.90;;;;;;5073178;28;20033;-73
2022/01/20 03:49:27;;;;;;;12.07;2.38;;;4.90;99.90;;;;;;5072798;28;20568;-73
2022/01/20 03:51:55;;;;;;;30.92;6.85;;;4.90;99.90;;;;;;5073053;28;20045;-73
2022/01/20 03:54:21;;;;;;;17.85;5.32;;;4.90;99.90;;;;;;5072988;28;20074;-72
2022/01/20 03:57:05;;;;;;;12.82;2.45;;;4.90;99.90;;;;;;5074115;28;20123;-73
2022/01/20 03:59:51;;;;;;;19.25;2.00;;;4.90;99.90;;;;;;5042473;28;20067;-73
2022/01/20 04:02:24;;;;;;;17.50;3.50;;;5.00;99.90;;;;;;5072827;28;20031;-73
2022/01/20 04:04:56;;;;;;;19.00;3.20;;;5.00;99.90;;;;;;5072401;28;20556;-73
2022/01/20 04:07:28;;;;;;;17.38;3.65;;;5.10;99.90;;;;;;5072778;28;20025;-73
2022/01/20 04:09:54;;;;;;;17.52;2.47;;;5.20;99.90;;;;;;5064962;28;20027;-73
2022/01/20 04:12:20;;;;;;;13.93;2.08;;;5.20;99.90;;;;;;5092906;28;20040;-73
2022/01/20 04:14:48;;;;;;;27.48;3.08;;;5.20;99.90;;;;;;5093067;28;20116;-73
2022/01/20 04:17:18;;;;;;;16.15;2.85;;;5.30;99.90;;;;;;5075571;28;20206;-73
2022/01/20 04:19:44;;;;;;;21.10;3.17;;;5.40;99.90;;;;;;5093615;28;20032;-73
2022/01/20 04:22:09;;;;;;;16.10;1.90;;;5.10;99.90;;;;;;5093857;28;20096;-73
2022/01/20 04:24:37;;;;;;;18.63;2.22;;;5.00;99.90;;;;;;5091813;28;20024;-72
2022/01/20 04:27:04;;;;;;;16.25;2.35;;;4.70;99.90;;;;;;5075521;28;20028;-73
2022/01/20 04:29:32;;;;;;;23.00;3.00;;;4.80;99.90;;;;;;5075859;28;20031;-73
2022/01/20 04:31:58;;;;;;;28.05;3.22;;;4.60;99.90;;;;;;5092487;28;20047;-73
2022/01/20 04:34:24;;;;;;;19.83;2.88;;;4.70;99.90;;;;;;5092014;28;20024;-73
2022/01/20 04:36:53;;;;;;;18.23;2.45;;;4.70;99.90;;;;;;5092564;28;20531;-72
2022/01/20 04:39:22;;;;;;;23.60;6.07;;;4.60;99.90;;;;;;5092301;28;20120;-73
2022/01/20 04:41:50;;;;;;;20.83;3.05;;;4.60;99.90;;;;;;5092551;28;20115;-73
2022/01/20 04:44:41;;;;;;;16.25;2.55;;;4.60;99.90;;;;;;5092147;28;20028;-73
2022/01/20 04:47:59;;;;;;;19.25;2.97;;;4.60;99.90;;;;;;5093368;28;20499;-73
2022/01/20 04:58:06;;;;;;;16.92;2.55;;;4.40;99.90;;;;;;5091895;28;20119;-73
2022/01/20 05:00:31;;;;;;;17.17;3.33;;;4.60;99.90;;;;;;5075577;28;20104;-73
2022/01/20 05:03:26;;;;;;;21.33;2.78;;;4.60;99.90;;;;;;5055305;28;20041;-73
2022/01/20 05:05:56;;;;;;;21.67;2.78;;;4.70;99.90;;;;;;5091928;28;20029;-73
2022/01/20 05:08:23;;;;;;;25.27;3.60;;;4.80;99.90;;;;;;5074787;28;20035;-72
2022/01/20 05:10:53;;;;;;;26.05;4.35;;;4.80;99.90;;;;;;5071687;28;20046;-73
2022/01/20 05:13:33;;;;;;;17.92;3.10;;;5.00;99.90;;;;;;5071690;28;20033;-73
2022/01/20 05:15:59;;;;;;;24.52;3.42;;;5.00;99.90;;;;;;5088570;28;20116;-73
2022/01/20 05:18:25;;;;;;;21.55;3.85;;;5.10;99.90;;;;;;5088738;28;20112;-73
2022/01/20 05:20:52;;;;;;;26.02;3.70;;;5.10;99.90;;;;;;5085158;28;20032;-73
2022/01/20 05:23:18;;;;;;;32.53;4.88;;;5.10;99.90;;;;;;5093196;28;20035;-73
2022/01/20 05:25:44;;;;;;;24.98;3.42;;;5.30;99.90;;;;;;5091777;28;20031;-73
2022/01/20 05:28:11;;;;;;;29.27;4.10;;;5.20;99.90;;;;;;5075077;28;20074;-73
2022/01/20 05:30:40;;;;;;;19.42;3.03;;;5.30;99.90;;;;;;5091175;28;20506;-73
2022/01/20 05:33:21;;;;;;;20.85;3.13;;;5.30;99.90;;;;;;5091692;28;20031;-73
2022/01/20 05:35:48;;;;;;;21.63;3.28;;;5.30;99.90;;;;;;5095789;28;20027;-73
2022/01/20 05:38:14;;;;;;;9.68;2.17;;;5.30;99.90;;;;;;5098242;28;20052;-73
2022/01/20 05:40:43;;;;;;;21.00;2.58;;;5.30;99.90;;;;;;5098107;28;20055;-73
2022/01/20 05:43:10;;;;;;;15.88;2.50;;;5.30;99.90;;;;;;5099725;28;20115;-73
2022/01/20 05:45:37;;;;;;;19.23;2.40;;;5.20;99.90;;;;;;5081110;28;20115;-73
2022/01/20 05:48:14;;;;;;;19.75;2.33;;;5.30;99.90;;;;;;5098327;28;20051;-73
2022/01/20 05:50:58;;;;;;;18.30;3.20;;;5.30;99.90;;;;;;5099606;28;20051;-73
2022/01/20 05:53:23;;;;;;;12.88;1.80;;;5.30;99.90;;;;;;5098000;28;20391;-73
2022/01/20 05:55:49;;;;;;;12.55;3.28;;;5.30;99.90;;;;;;5098308;28;20023;-73
2022/01/20 05:58:15;;;;;;;9.25;1.50;;;5.40;99.90;;;;;;5098059;28;20064;-72
2022/01/20 06:00:42;;;;;;;12.40;2.00;;;5.40;99.90;;;;;;5097817;28;20361;-73
2022/01/20 06:05:53;;;;;;;18.98;3.65;;;5.40;99.90;;;;;;5097902;28;20032;-73
2022/01/20 06:08:19;;;;;;;12.95;2.25;;;5.50;99.90;;;;;;5098062;28;20065;-73
2022/01/20 06:10:45;;;;;;;14.38;2.55;;;5.50;99.90;;;;;;5077661;28;20036;-73
2022/01/20 06:13:18;;;;;;;20.20;2.95;;;5.40;99.90;;;;;;5077811;28;20036;-74
2022/01/20 06:15:44;;;;;;;11.90;3.40;;;5.40;99.90;;;;;;5077450;28;20055;-73
2022/01/20 06:18:10;;;;;;;18.45;2.63;;;5.50;99.90;;;;;;5077398;28;20035;-73
2022/01/20 06:20:41;;;;;;;16.92;2.55;;;5.60;99.90;;;;;;5077519;28;20094;-73
2022/01/20 06:23:08;;;;;;;12.75;1.80;;;5.40;99.90;;;;;;5077840;28;20452;-73
2022/01/20 06:25:35;;;;;;;17.77;2.33;;;5.50;99.90;;;;;;5077779;28;20029;-73
2022/01/20 06:28:01;;;;;;;19.35;3.00;;;5.50;99.90;;;;;;5099050;28;20055;-73
2022/01/20 06:30:27;;;;;;;12.98;2.30;;;5.50;99.90;;;;;;5097482;28;20066;-73
2022/01/20 06:32:53;;;;;;;18.08;2.60;;;5.50;99.90;;;;;;5097723;28;20028;-73
2022/01/20 06:35:26;;;;;;;38.05;4.15;;;5.60;99.90;;;;;;5081808;28;20173;-73
2022/01/20 06:37:53;;;;;;;14.63;2.70;;;5.50;99.90;;;;;;5097768;28;20032;-73
2022/01/20 06:40:18;;;;;;;29.98;3.88;;;5.50;99.90;;;;;;5097737;28;20050;-73
2022/01/20 06:42:45;;;;;;;21.38;3.28;;;5.40;99.90;;;;;;5097772;28;20024;-73
2022/01/20 06:45:13;;;;;;;26.95;2.97;;;5.40;99.90;;;;;;5097235;28;20028;-73
2022/01/20 06:47:40;;;;;;;14.38;2.95;;;5.60;99.90;;;;;;5094123;28;20483;-73
2022/01/20 06:50:10;;;;;;;19.75;3.40;;;5.70;99.90;;;;;;5096110;28;20032;-73
2022/01/20 06:52:37;;;;;;;24.63;3.35;;;5.70;99.90;;;;;;5094195;28;20035;-73
2022/01/20 06:55:07;;;;;;;30.73;4.72;;;5.80;99.90;;;;;;5094427;28;20020;-73
2022/01/20 06:57:34;;;;;;;21.95;3.22;;;5.80;99.90;;;;;;5093807;28;20035;-73
2022/01/20 07:00:04;;;;;;;26.98;3.63;;;5.70;99.90;;;;;;5094360;28;20028;-73
2022/01/20 07:02:30;;;;;;;32.35;4.85;;;5.70;99.90;;;;;;5093970;28;20438;-73
2022/01/20 07:04:58;;;;;;;18.95;4.30;;;5.80;99.90;;;;;;5094371;28;20027;-73
2022/01/20 07:07:23;;;;;;;25.33;4.80;;;5.80;99.90;;;;;;5094114;28;20658;-73
2022/01/20 07:10:10;;;;;;;28.42;4.15;;;5.80;99.90;;;;;;5083543;28;20031;-73
2022/01/20 07:12:42;;;;;;;30.95;4.25;;;5.80;99.90;;;;;;5057258;28;20059;-73
2022/01/20 07:15:08;;;;;;;28.83;4.30;;;5.70;99.90;;;;;;5073618;28;20349;-73
2022/01/20 07:17:34;;;;;;;24.35;3.72;;;5.90;99.90;;;;;;5073222;28;20020;-73
2022/01/20 07:20:03;;;;;;;34.42;4.97;;;5.90;99.90;;;;;;5073575;28;20116;-73
2022/01/20 07:22:30;;;;;;;30.95;3.72;;;5.90;99.90;;;;;;5074159;28;20025;-73
2022/01/20 07:25:00;;;;;;;38.10;4.13;;;5.80;99.90;;;;;;5073677;28;20044;-74
2022/01/20 07:27:44;;;;;;;28.60;4.63;;;5.60;99.90;;;;;;5092657;28;20115;-73
2022/01/20 07:30:10;;;;;;;30.00;3.53;;;5.70;99.90;;;;;;5093607;28;20052;-74
2022/01/20 07:32:36;;;;;;;29.80;4.47;;;5.60;99.90;;;;;;5093255;28;20040;-73
2022/01/20 07:35:02;;;;;;;24.85;3.72;;;5.70;99.90;;;;;;5093607;28;20484;-73
2022/01/20 07:37:28;;;;;;;28.20;3.88;;;5.60;99.90;;;;;;5093064;28;20071;-73
2022/01/20 07:39:55;;;;;;;23.60;3.45;;;5.60;99.90;;;;;;5093175;28;20082;-73
2022/01/20 07:42:21;;;;;;;26.75;3.83;;;5.50;99.90;;;;;;5090168;28;20024;-73
2022/01/20 07:45:04;;;;;;;29.02;4.45;;;5.60;99.90;;;;;;5070588;28;20027;-73
2022/01/20 07:47:55;;;;;;;30.85;3.97;;;5.70;99.90;;;;;;5092443;28;20480;-73
2022/01/20 07:50:21;;;;;;;24.77;4.32;;;5.60;99.90;;;;;;5091603;28;20032;-73
2022/01/20 07:52:47;;;;;;;30.20;3.78;;;5.60;99.90;;;;;;5072871;28;20043;-73
2022/01/20 07:55:14;;;;;;;24.67;3.65;;;5.50;99.90;;;;;;5072509;28;20024;-73
2022/01/20 07:57:40;;;;;;;18.17;3.30;;;5.50;99.90;;;;;;5071447;28;20058;-73
2022/01/20 08:00:08;;;;;;;24.90;3.45;;;5.40;99.90;;;;;;5072532;28;20078;-72
2022/01/20 08:02:44;;;;;;;23.27;3.80;;;5.30;99.90;;;;;;5072678;28;20032;-73
2022/01/20 08:05:15;;;;;;;29.98;3.70;;;5.50;99.90;;;;;;5072232;28;20032;-73
2022/01/20 08:07:41;;;;;;;22.90;3.97;;;5.40;99.90;;;;;;5071944;28;20419;-73
2022/01/20 08:10:11;;;;;;;39.80;4.30;;;5.20;99.90;;;;;;5082502;28;20073;-73
2022/01/20 08:12:37;;;;;;;25.98;4.07;;;5.20;99.90;;;;;;5082021;28;20040;-73
2022/01/20 08:15:18;;;;;;;41.05;5.13;;;5.10;99.90;;;;;;5092434;28;20052;-73
2022/01/20 08:18:10;;;;;;;21.08;3.88;;;5.10;99.90;;;;;;5090057;28;20070;-73
2022/01/20 08:20:38;;;;;;;29.30;4.35;;;4.90;99.90;;;;;;5093360;28;20031;-73
2022/01/20 08:23:06;;;;;;;24.23;4.00;;;4.90;99.90;;;;;;5091875;28;20095;-73
2022/01/20 08:25:34;;;;;;;23.52;3.30;;;4.80;99.90;;;;;;5079388;28;20464;-73
2022/01/20 08:28:01;;;;;;;36.97;4.47;;;4.90;99.90;;;;;;5071581;28;20040;-73
2022/01/20 08:30:28;;;;;;;28.92;4.45;;;4.90;99.90;;;;;;5071648;28;20021;-73
2022/01/20 08:32:57;;;;;;;26.92;5.35;;;4.90;99.90;;;;;;5071416;28;20501;-72
2022/01/20 08:35:33;;;;;;;29.23;3.90;;;5.00;99.90;;;;;;5071829;28;20028;-73
2022/01/20 08:38:06;;;;;;;25.83;4.05;;;5.10;99.90;;;;;;5071226;28;20074;-73
2022/01/20 08:40:33;;;;;;;26.10;3.38;;;5.00;99.90;;;;;;5055219;28;20021;-73
2022/01/20 08:43:00;;;;;;;24.63;5.78;;;5.20;99.90;;;;;;5078564;28;20032;-73
2022/01/20 08:45:33;;;;;;;20.48;4.15;;;5.20;99.90;;;;;;5091898;28;20030;-72
2022/01/20 08:48:00;;;;;;;19.25;3.17;;;5.20;99.90;;;;;;5091532;28;20435;-73
2022/01/20 08:50:44;;;;;;;26.38;4.03;;;5.30;99.90;;;;;;5091763;28;20077;-73
2022/01/20 08:53:11;;;;;;;17.40;2.50;;;5.50;99.90;;;;;;5091320;28;20131;-73
2022/01/20 08:55:38;;;;;;;24.75;4.18;;;5.50;99.90;;;;;;5091251;28;20090;-74
2022/01/20 08:58:11;;;;;;;21.52;3.70;;;5.50;99.90;;;;;;5091328;28;20081;-74
2022/01/20 09:00:37;;;;;;;23.58;3.50;;;5.50;99.90;;;;;;5070930;28;20330;-73
2022/01/20 09:03:05;;;;;;;21.50;3.38;;;5.50;99.90;;;;;;5070980;28;20028;-74
2022/01/20 09:05:32;;;;;;;23.63;3.78;;;5.60;99.90;;;;;;5054656;28;20020;-74
2022/01/20 09:08:09;;;;;;;14.57;3.08;;;5.70;99.90;;;;;;5070836;28;20488;-73
2022/01/20 09:10:42;;;;;;;22.92;3.35;;;5.80;99.90;;;;;;5054141;28;20032;-74
2022/01/20 09:15:57;;;;;;;23.90;3.83;;;5.90;99.90;;;;;;5091250;28;20035;-73
2022/01/20 09:18:43;;;;;;;23.38;3.42;;;6.20;99.90;;;;;;5081421;28;20073;-73
2022/01/20 09:21:09;;;;;;;14.57;3.10;;;6.10;99.90;;;;;;5092168;28;20109;-73
2022/01/20 09:23:37;;;;;;;14.00;3.25;;;6.10;99.90;;;;;;5090356;28;20024;-73
2022/01/20 09:26:02;;;;;;;19.90;3.80;;;6.20;99.90;;;;;;5090203;28;20039;-74
2022/01/20 09:28:34;;;;;;;23.58;3.42;;;6.10;99.90;;;;;;5089786;28;20122;-73
2022/01/20 09:31:01;;;;;;;24.20;3.83;;;5.90;99.90;;;;;;5090367;28;20020;-73
2022/01/20 09:33:28;;;;;;;19.23;4.35;;;5.70;99.90;;;;;;5074629;28;20032;-73
2022/01/20 09:35:57;;;;;;;19.02;3.78;;;5.70;99.90;;;;;;5091454;28;20111;-73
2022/01/20 09:38:24;;;;;;;18.35;3.80;;;5.70;99.90;;;;;;5092470;28;20535;-73
2022/01/20 09:40:49;;;;;;;22.05;4.25;;;5.70;99.90;;;;;;5092580;28;20036;-74
2022/01/20 09:43:15;;;;;;;15.18;5.00;;;5.90;99.90;;;;;;5091375;28;20031;-73
2022/01/20 09:45:48;;;;;;;24.17;3.53;;;5.80;99.90;;;;;;5091458;28;20495;-74
2022/01/20 09:48:18;;;;;;;18.52;3.15;;;5.90;99.90;;;;;;5091369;28;20044;-73
2022/01/20 09:51:11;;;;;;;25.00;2.53;;;5.90;99.90;;;;;;5086542;28;20052;-73
2022/01/20 09:53:57;;;;;;;23.73;4.07;;;5.90;99.90;;;;;;5090946;28;20028;-73
2022/01/20 09:56:44;;;;;;;27.27;4.70;;;6.20;99.90;;;;;;5092545;28;20075;-72
2022/01/20 09:59:12;;;;;;;14.15;3.13;;;6.30;99.90;;;;;;5091195;28;20057;-73
2022/01/20 10:01:48;;;;;;;17.95;2.88;;;6.30;99.90;;;;;;5091780;28;20039;-74
2022/01/20 10:04:31;;;;;;;23.80;5.18;;;6.20;99.90;;;;;;5092097;28;20417;-73
2022/01/20 10:07:09;;;;;;;20.67;4.35;;;6.20;99.90;;;;;;5087927;28;20029;-73
2022/01/20 10:09:45;;;;;;;13.10;3.45;;;6.40;99.90;;;;;;5077588;28;20047;-73
2022/01/20 10:12:30;;;;;;;14.07;2.40;;;7.10;99.90;;;;;;5075887;28;20077;-73
2022/01/20 10:15:07;;;;;;;14.75;3.28;;;7.30;99.90;;;;;;5091382;28;20028;-73
2022/01/20 10:17:43;;;;;;;21.98;3.30;;;7.30;99.90;;;;;;5091151;28;20476;-74
2022/01/20 10:20:12;;;;;;;20.75;3.45;;;7.70;99.90;;;;;;5091088;28;20028;-74
2022/01/20 10:22:56;;;;;;;22.40;2.75;;;7.80;99.90;;;;;;5090298;28;20032;-74
2022/01/20 10:25:40;;;;;;;20.63;3.92;;;8.30;99.90;;;;;;5095201;28;20040;-74
2022/01/20 10:28:24;;;;;;;20.15;2.50;;;8.40;99.90;;;;;;5094654;28;20025;-74
2022/01/20 10:30:55;;;;;;;18.98;2.88;;;8.70;99.90;;;;;;5094554;28;20056;-74
2022/01/20 10:33:21;;;;;;;13.25;3.38;;;9.60;99.90;;;;;;5077663;28;20384;-74
2022/01/20 10:35:47;;;;;;;17.45;2.45;;;9.40;99.90;;;;;;5076798;28;20040;-74
2022/01/20 10:38:21;;;;;;;13.02;2.75;;;9.80;99.90;;;;;;5094530;28;20022;-74
2022/01/20 10:40:59;;;;;;;;;;;10.20;99.90;;;;;;5093454;28;20028;-74
2022/01/20 10:43:32;;;;;;;21.70;3.17;;;9.90;99.90;;;;;;5094311;28;19915;-75
2022/01/20 10:46:08;;;;;;;25.10;3.35;;;9.60;99.90;;;;;;5094199;28;20115;-74
2022/01/20 10:48:34;;;;;;;28.23;3.00;;;9.40;99.90;;;;;;5093786;28;20024;-73
2022/01/20 10:51:02;;;;;;;10.50;2.08;;;8.60;99.90;;;;;;5076605;28;20119;-74
2022/01/20 10:53:28;;;;;;;6.45;2.00;;;7.60;99.90;;;;;;5094324;28;20028;-73
2022/01/20 10:56:06;;;;;;;11.00;2.25;;;6.90;99.90;;;;;;5078064;28;20028;-74
2022/01/20 10:58:32;;;;;;;16.25;2.60;;;6.40;99.90;;;;;;5094059;28;20111;-73
2022/01/20 11:01:00;;;;;;;8.25;1.65;;;6.40;99.90;;;;;;5077729;28;20031;-73
2022/01/20 11:03:31;;;;;;;14.75;2.20;;;6.40;99.90;;;;;;5094144;28;20394;-73
2022/01/20 11:05:59;;;;;;;9.57;1.90;;;6.40;99.90;;;;;;5094496;28;20027;-73
2022/01/20 11:08:37;;;;;;;11.25;1.48;;;6.50;99.90;;;;;;5093837;28;20035;-73
2022/01/20 11:11:04;;;;;;;11.07;1.90;;;6.30;99.90;;;;;;5094994;28;20043;-73
2022/01/20 11:13:48;;;;;;;16.25;4.05;;;6.30;99.90;;;;;;5094500;28;20073;-73
2022/01/20 11:16:14;;;;;;;15.07;6.18;;;6.20;99.90;;;;;;5093648;28;20484;-73
2022/01/20 11:18:42;;;;;;;15.57;3.92;;;6.10;99.90;;;;;;5076355;28;20117;-73
2022/01/20 11:21:08;;;;;;;24.80;3.63;;;6.40;99.90;;;;;;5076417;28;20028;-73
2022/01/20 11:23:42;;;;;;;11.30;2.83;;;7.40;99.90;;;;;;5078345;28;20083;-73
2022/01/20 11:26:58;;;;;;;13.23;2.55;;;8.00;99.90;;;;;;5051832;28;20063;-72
2022/01/20 11:29:44;;;;;;;12.20;2.40;;;8.60;99.90;;;;;;5072925;28;20396;-73
2022/01/20 11:32:33;;;;;;;;;;;8.80;99.90;;;;;;5074244;28;20193;-73
2022/01/20 11:35:18;;;;;;;10.07;1.80;;;8.90;99.90;;;;;;5072662;28;20334;-73
2022/01/20 11:37:56;;;;;;;9.98;2.00;;;8.80;99.90;;;;;;5074343;28;20067;-73
2022/01/20 11:40:23;;;;;;;13.85;2.53;;;8.20;99.90;;;;;;5074196;28;20070;-72
2022/01/20 11:43:08;;;;;;;9.65;1.88;;;7.60;99.90;;;;;;5073847;28;20044;-72
2022/01/20 11:45:43;;;;;;;10.60;2.58;;;6.10;99.90;;;;;;5073143;28;20037;-73
2022/01/20 11:48:23;;;;;;;14.30;2.90;;;5.60;99.90;;;;;;5073759;28;20039;-73
2022/01/20 11:51:04;;;;;;;8.77;1.92;;;5.50;99.90;;;;;;5074227;28;20081;-72
2022/01/20 11:53:30;;;;;;;13.90;2.15;;;5.60;99.90;;;;;;5072854;28;20124;-74
2022/01/20 11:55:56;;;;;;;10.38;2.28;;;5.80;99.90;;;;;;5073965;28;20103;-74
2022/01/20 11:58:24;;;;;;;10.85;2.03;;;5.90;99.90;;;;;;5073492;28;20108;-74
2022/01/20 12:01:08;;;;;;;7.45;1.88;;;6.30;99.90;;;;;;5072951;28;20060;-74
2022/01/20 12:03:36;;;;;;;11.98;2.33;;;7.30;99.90;;;;;;5073786;28;20420;-74
2022/01/20 12:06:09;;;;;;;15.93;3.05;;;8.20;99.90;;;;;;5056687;28;20024;-74
2022/01/20 12:09:04;;;;;;;10.73;2.20;;;8.90;99.90;;;;;;5074383;28;20107;-74
2022/01/20 12:11:39;;;;;;;9.82;2.45;;;10.20;99.90;;;;;;5094208;28;20032;-75
2022/01/20 12:14:06;;;;;;;14.43;2.72;;;10.70;99.90;;;;;;5092949;28;20040;-75
2022/01/20 12:16:33;;;;;;;15.15;2.47;;;11.00;99.90;;;;;;5093791;28;20089;-75
2022/01/20 12:19:00;;;;;;;16.55;2.75;;;11.40;99.90;;;;;;5093550;28;20104;-74
2022/01/20 12:21:30;;;;;;;13.63;2.55;;;11.80;99.90;;;;;;5092752;28;20036;-75
2022/01/20 12:23:56;;;;;;;17.13;3.28;;;11.30;99.90;;;;;;5093645;28;20047;-75
2022/01/20 12:26:23;;;;;;;20.15;2.40;;;10.60;99.90;;;;;;5092536;28;20415;-75
2022/01/20 12:29:00;;;;;;;13.90;3.03;;;10.70;99.90;;;;;;5093734;28;20076;-75
2022/01/20 12:31:26;;;;;;;17.73;2.83;;;11.40;99.90;;;;;;5093395;28;20480;-75
2022/01/20 12:33:53;;;;;;;15.82;2.28;;;11.50;99.90;;;;;;5093587;28;20116;-75
2022/01/20 12:36:19;;;;;;;18.00;2.50;;;11.90;99.90;;;;;;5093634;28;20024;-75
2022/01/20 12:38:47;;;;;;;13.75;2.70;;;11.70;99.90;;;;;;5093632;28;20028;-75
2022/01/20 12:41:17;;;;;;;8.95;2.28;;;12.30;99.90;;;;;;5092438;28;20069;-75
2022/01/20 12:43:46;;;;;;;14.95;2.95;;;12.30;99.90;;;;;;5093282;28;20036;-75
2022/01/20 12:46:15;;;;;;;14.90;2.67;;;13.10;99.80;;;;;;5075605;28;20025;-75
2022/01/20 12:49:14;;;;;;;19.98;3.05;;;12.00;99.00;;;;;;5073220;28;20029;-75
2022/01/20 12:51:46;;;;;;;17.13;2.25;;;10.10;99.90;;;;;;5070576;28;20060;-75
2022/01/20 12:54:11;;;;;;;;;;;10.70;99.90;;;;;;5073421;28;20060;-75
2022/01/20 12:56:44;;;;;;;14.88;2.60;;;11.20;99.90;;;;;;5073146;28;19912;-75
2022/01/20 12:59:10;;;;;;;9.13;2.22;;;12.00;99.90;;;;;;5071968;28;20121;-74
2022/01/20 13:01:40;;;;;;;10.55;2.50;;;12.20;99.10;;;;;;5072881;28;20028;-75
2022/01/20 13:04:08;;;;;;;10.68;1.90;;;12.70;99.90;;;;;;5075309;28;20028;-75
2022/01/20 13:06:34;;;;;;;11.80;2.53;;;12.60;98.40;;;;;;5080186;28;20573;-75
2022/01/20 13:09:05;;;;;;;14.20;2.40;;;11.30;99.20;;;;;;5074190;28;20036;-75
2022/01/20 13:11:49;;;;;;;23.05;3.95;;;10.60;99.90;;;;;;5091989;28;20035;-75
2022/01/20 13:14:15;;;;;;;16.15;2.80;;;10.30;99.90;;;;;;5093005;28;20016;-73
2022/01/20 13:16:55;;;;;;;17.65;2.38;;;9.60;99.90;;;;;;5092956;28;20495;-75
2022/01/20 13:19:46;;;;;;;21.00;2.58;;;9.10;99.90;;;;;;5092697;28;20035;-75
2022/01/20 13:22:24;;;;;;;18.08;2.75;;;9.10;99.90;;;;;;5091901;28;20496;-74
2022/01/20 13:24:50;;;;;;;19.65;3.20;;;9.50;99.90;;;;;;5093218;28;20069;-74
2022/01/20 13:27:17;;;;;;;19.75;3.03;;;9.90;99.90;;;;;;5092749;28;20024;-74
2022/01/20 13:29:49;;;;;;;17.23;3.10;;;10.10;99.90;;;;;;5092522;28;20024;-73
2022/01/20 13:32:16;;;;;;;18.83;3.92;;;9.60;99.90;;;;;;5092613;28;20085;-74
2022/01/20 13:34:59;;;;;;;17.08;2.38;;;9.20;99.90;;;;;;5091423;28;20054;-74
2022/01/20 13:37:26;;;;;;;16.40;2.45;;;9.00;99.90;;;;;;5091728;28;20480;-73
2022/01/20 13:39:57;;;;;;;20.05;2.70;;;8.90;99.90;;;;;;5091619;28;20067;-74
2022/01/20 13:45:14;;;;;;;12.18;2.08;;;8.30;99.90;;;;;;5092563;28;20028;-75
2022/01/20 13:47:57;;;;;;;13.02;2.60;;;8.30;99.90;;;;;;5091293;28;20081;-74
2022/01/20 13:50:24;;;;;;;;;;;8.30;99.90;;;;;;5092835;28;20043;-74
2022/01/20 13:52:51;;;;;;;14.40;2.17;;;8.20;99.90;;;;;;5092761;28;20402;-75
2022/01/20 13:55:35;;;;;;;12.02;1.88;;;8.00;99.90;;;;;;5092484;28;20051;-74
2022/01/20 13:58:02;;;;;;;15.18;1.90;;;8.40;99.90;;;;;;5096688;28;20044;-75
2022/01/20 14:00:31;;;;;;;9.20;1.88;;;9.80;99.90;;;;;;5096487;28;20048;-75
2022/01/20 14:02:58;;;;;;;7.45;1.75;;;11.30;99.50;;;;;;5095197;28;20070;-75
2022/01/20 14:05:32;;;;;;;16.55;2.42;;;10.80;99.00;;;;;;5096494;28;20046;-75
2022/01/20 14:07:59;;;;;;;8.30;1.80;;;11.40;99.00;;;;;;5096739;28;20059;-75
2022/01/20 14:10:25;;;;;;;10.75;2.58;;;11.40;98.80;;;;;;5082833;28;20086;-74
2022/01/20 14:12:51;;;;;;;9.18;1.90;;;10.80;99.30;;;;;;5076062;28;20040;-75